Time;durP1;ratioP1;P1;durP2;ratioP2;P2;SDS_P1;SDS_P2;PMS_P1;PMS_P2;Temp;Humidity;BMP_temperature;BMP_pressure;BME280_temperature;BME280_humidity;BME280_pressure;Samples;Min_cycle;Max_cycle;Signal;HPM_P1;HPM_P2
2023/08/07 00:00:36;;;;;;;1.40;0.52;;;15.50;96.40;;;;;;5137432;27;20026;-70
2023/08/07 00:03:02;;;;;;;1.17;0.70;;;15.50;96.40;;;;;;5137181;27;20035;-70
2023/08/07 00:05:28;;;;;;;1.02;0.70;;;15.60;96.10;;;;;;5137051;27;20062;-70
2023/08/07 00:07:54;;;;;;;1.23;0.70;;;15.50;96.20;;;;;;5137369;27;20027;-70
2023/08/07 00:10:20;;;;;;;1.75;0.50;;;15.50;96.00;;;;;;5137326;27;20115;-69
2023/08/07 00:12:45;;;;;;;0.43;0.43;;;15.50;95.70;;;;;;5136385;27;20076;-69
2023/08/07 00:15:11;;;;;;;0.85;0.65;;;15.50;95.60;;;;;;5137341;27;20370;-70
2023/08/07 00:17:37;;;;;;;0.85;0.60;;;15.60;95.40;;;;;;5136762;27;20391;-69
2023/08/07 00:20:04;;;;;;;1.00;0.60;;;15.60;95.40;;;;;;5136886;27;20471;-70
2023/08/07 00:22:30;;;;;;;1.35;0.60;;;15.60;95.40;;;;;;5136963;27;20031;-70
2023/08/07 00:24:55;;;;;;;0.68;0.50;;;15.60;95.20;;;;;;5125277;27;20475;-70
2023/08/07 00:27:21;;;;;;;0.75;0.50;;;15.60;95.00;;;;;;5116025;28;20038;-69
2023/08/07 00:29:47;;;;;;;1.55;0.70;;;15.60;95.20;;;;;;5115914;28;20034;-69
2023/08/07 00:32:12;;;;;;;0.98;0.60;;;15.60;95.10;;;;;;5097990;28;20042;-70
2023/08/07 00:34:38;;;;;;;1.40;0.70;;;15.60;94.90;;;;;;5115645;28;20032;-70
2023/08/07 00:37:04;;;;;;;1.48;0.52;;;15.50;95.00;;;;;;5098036;28;20027;-70
2023/08/07 00:39:30;;;;;;;0.90;0.60;;;15.60;95.00;;;;;;5115834;28;20122;-70
2023/08/07 00:41:55;;;;;;;3.55;0.75;;;15.60;95.00;;;;;;5115922;28;20040;-69
2023/08/07 00:44:23;;;;;;;2.95;0.60;;;15.50;94.90;;;;;;5116088;28;20063;-70
2023/08/07 00:46:49;;;;;;;1.02;0.60;;;15.60;95.00;;;;;;5115567;28;20036;-69
2023/08/07 00:49:14;;;;;;;0.82;0.70;;;15.50;95.10;;;;;;5115998;28;20043;-70
2023/08/07 00:51:40;;;;;;;1.38;0.50;;;15.60;95.10;;;;;;5115529;28;20444;-70
2023/08/07 00:54:09;;;;;;;1.17;0.70;;;15.50;95.00;;;;;;5130444;27;20036;-70
2023/08/07 00:56:35;;;;;;;0.70;0.65;;;15.60;94.80;;;;;;5135956;27;20019;-70
2023/08/07 00:59:01;;;;;;;1.40;0.60;;;15.50;94.70;;;;;;5136395;27;20034;-69
2023/08/07 01:01:27;;;;;;;1.00;0.70;;;15.50;94.70;;;;;;5135934;27;20067;-70
2023/08/07 01:03:53;;;;;;;1.00;0.60;;;15.60;94.50;;;;;;5136647;27;20027;-70
2023/08/07 01:06:19;;;;;;;1.00;0.93;;;15.60;94.40;;;;;;5117778;27;20027;-69
2023/08/07 01:08:46;;;;;;;3.45;0.77;;;15.60;94.50;;;;;;5134764;27;20034;-70
2023/08/07 01:11:31;;;;;;;0.70;0.52;;;15.60;94.60;;;;;;5136287;27;20023;-69
2023/08/07 01:14:10;;;;;;;1.10;0.70;;;15.60;94.60;;;;;;5136444;27;20038;-70
2023/08/07 01:17:01;;;;;;;0.90;0.60;;;15.60;94.50;;;;;;5135801;27;20103;-70
2023/08/07 01:19:28;;;;;;;2.30;0.65;;;15.60;94.40;;;;;;5135909;27;20027;-74
2023/08/07 01:22:10;;;;;;;1.48;0.50;;;15.50;94.40;;;;;;5135971;27;20027;-69
2023/08/07 01:24:37;;;;;;;1.35;1.00;;;15.50;94.20;;;;;;5135196;27;20026;-69
2023/08/07 01:27:36;;;;;;;1.35;0.68;;;15.50;94.30;;;;;;5117388;27;20046;-70
2023/08/07 01:30:29;;;;;;;0.98;0.60;;;15.50;94.10;;;;;;5135845;27;20098;-69
2023/08/07 01:33:04;;;;;;;2.15;0.50;;;15.60;94.00;;;;;;5117309;27;20064;-69
2023/08/07 01:35:42;;;;;;;2.35;0.60;;;15.50;93.80;;;;;;5135378;27;20031;-70
2023/08/07 01:38:08;;;;;;;3.97;0.60;;;15.50;93.70;;;;;;5135793;27;20483;-69
2023/08/07 01:40:36;;;;;;;1.25;0.70;;;15.50;93.80;;;;;;5135520;27;20038;-69
2023/08/07 01:43:01;;;;;;;0.65;0.65;;;15.50;93.80;;;;;;5135209;27;20035;-69
2023/08/07 01:45:28;;;;;;;3.78;0.90;;;15.50;93.80;;;;;;5135632;27;20106;-69
2023/08/07 01:47:54;;;;;;;4.00;1.10;;;15.50;93.90;;;;;;5135544;27;20026;-69
2023/08/07 01:50:21;;;;;;;1.40;0.80;;;15.50;94.00;;;;;;5135535;27;20085;-70
2023/08/07 01:52:47;;;;;;;3.10;0.98;;;15.50;93.60;;;;;;5135036;27;20102;-70
2023/08/07 01:55:16;;;;;;;1.42;0.60;;;15.50;93.60;;;;;;5135399;27;20559;-70
2023/08/07 01:57:42;;;;;;;4.43;0.88;;;15.50;93.60;;;;;;5134762;27;20038;-70
2023/08/07 02:00:08;;;;;;;1.45;0.80;;;15.50;93.40;;;;;;5134993;27;20027;-71
2023/08/07 02:02:35;;;;;;;1.83;0.95;;;15.50;93.30;;;;;;5116432;27;20062;-71
2023/08/07 02:05:00;;;;;;;3.28;0.90;;;15.50;93.40;;;;;;5134808;27;20030;-70
2023/08/07 02:07:26;;;;;;;2.20;0.70;;;15.50;93.40;;;;;;5135121;27;20023;-69
2023/08/07 02:09:52;;;;;;;1.90;0.80;;;15.50;93.30;;;;;;5134815;27;20027;-70
2023/08/07 02:12:17;;;;;;;3.10;0.80;;;15.50;93.20;;;;;;5134984;27;20034;-69
2023/08/07 02:14:43;;;;;;;1.27;0.90;;;15.50;93.10;;;;;;5133919;27;20080;-70
2023/08/07 02:17:09;;;;;;;2.28;0.77;;;15.50;92.80;;;;;;5134862;27;20526;-69
2023/08/07 02:19:34;;;;;;;0.88;0.60;;;15.50;93.00;;;;;;5115550;27;20065;-70
2023/08/07 02:22:00;;;;;;;1.40;0.93;;;15.50;92.70;;;;;;5134745;27;20024;-69
2023/08/07 02:24:26;;;;;;;1.02;0.93;;;15.50;92.80;;;;;;5134770;27;20059;-69
2023/08/07 02:26:51;;;;;;;1.95;1.00;;;15.50;92.80;;;;;;5134088;27;20288;-70
2023/08/07 02:29:17;;;;;;;1.95;0.95;;;15.50;92.80;;;;;;5132130;27;20252;-69
2023/08/07 02:31:43;;;;;;;1.95;0.95;;;15.50;92.60;;;;;;5132927;27;20037;-70
2023/08/07 02:34:08;;;;;;;2.28;0.77;;;15.50;92.70;;;;;;5134810;27;20455;-69
2023/08/07 02:36:34;;;;;;;1.60;1.00;;;15.50;92.70;;;;;;5134084;27;20055;-70
2023/08/07 02:38:59;;;;;;;2.58;0.73;;;15.50;92.70;;;;;;5134151;27;20062;-70
2023/08/07 02:41:25;;;;;;;1.35;0.90;;;15.50;92.70;;;;;;5134153;27;20023;-69
2023/08/07 02:43:51;;;;;;;1.20;0.80;;;15.50;92.60;;;;;;5134026;27;20022;-70
2023/08/07 02:46:16;;;;;;;1.40;1.00;;;15.50;92.60;;;;;;5134294;27;20098;-70
2023/08/07 02:48:44;;;;;;;2.30;1.10;;;15.40;92.30;;;;;;5133678;27;20050;-70
2023/08/07 02:51:10;;;;;;;5.05;1.17;;;15.40;92.30;;;;;;5134237;27;20058;-70
2023/08/07 02:53:35;;;;;;;1.38;0.70;;;15.40;92.50;;;;;;5133497;27;20100;-70
2023/08/07 02:56:01;;;;;;;0.68;0.60;;;15.40;92.30;;;;;;5134332;27;20023;-70
2023/08/07 02:58:27;;;;;;;2.13;1.00;;;15.40;92.10;;;;;;5134083;27;20027;-69
2023/08/07 03:00:52;;;;;;;1.25;0.80;;;15.40;91.90;;;;;;5133741;27;20026;-69
2023/08/07 03:03:18;;;;;;;2.65;0.88;;;15.40;92.00;;;;;;5134074;27;20057;-69
2023/08/07 03:05:51;;;;;;;1.23;0.90;;;15.40;91.90;;;;;;5133636;27;20115;-69
2023/08/07 03:08:17;;;;;;;1.80;0.80;;;15.40;92.00;;;;;;5133962;27;20023;-69
2023/08/07 03:10:49;;;;;;;1.23;0.95;;;15.40;91.70;;;;;;5133603;27;20028;-69
2023/08/07 03:13:15;;;;;;;1.83;0.85;;;15.30;91.60;;;;;;5133750;27;20049;-69
2023/08/07 03:15:40;;;;;;;2.05;0.70;;;15.40;91.40;;;;;;5115234;28;20031;-70
2023/08/07 03:18:06;;;;;;;1.80;0.77;;;15.40;91.50;;;;;;5134145;27;20059;-69
2023/08/07 03:20:31;;;;;;;1.33;0.95;;;15.30;91.50;;;;;;5133906;27;20096;-69
2023/08/07 03:22:57;;;;;;;0.90;0.70;;;15.30;91.60;;;;;;5133145;27;20084;-69
2023/08/07 03:25:23;;;;;;;0.85;0.80;;;15.30;91.50;;;;;;5133522;27;20030;-69
2023/08/07 03:27:48;;;;;;;1.10;0.80;;;15.30;91.50;;;;;;5114950;28;20118;-69
2023/08/07 03:30:14;;;;;;;2.72;0.93;;;15.30;91.60;;;;;;5133787;28;20055;-69
2023/08/07 03:32:41;;;;;;;1.20;0.80;;;15.30;91.60;;;;;;5136403;27;20034;-69
2023/08/07 03:35:07;;;;;;;1.65;1.00;;;15.30;91.50;;;;;;5138046;27;20114;-69
2023/08/07 03:37:33;;;;;;;1.10;0.70;;;15.30;91.60;;;;;;5137666;27;20173;-69
2023/08/07 03:39:58;;;;;;;2.75;0.70;;;15.20;91.60;;;;;;5137537;27;20019;-69
2023/08/07 03:42:24;;;;;;;2.72;0.77;;;15.20;91.60;;;;;;5137584;27;20387;-69
2023/08/07 03:44:49;;;;;;;2.95;0.75;;;15.20;91.80;;;;;;5137498;27;20478;-69
2023/08/07 03:47:15;;;;;;;3.60;0.93;;;15.20;91.70;;;;;;5137733;27;20058;-69
2023/08/07 03:49:41;;;;;;;2.08;0.65;;;15.20;91.80;;;;;;5137191;27;20502;-71
2023/08/07 03:52:06;;;;;;;0.70;0.70;;;15.10;91.90;;;;;;5137636;27;20023;-70
2023/08/07 03:54:32;;;;;;;1.77;1.02;;;15.10;91.80;;;;;;5137701;27;20428;-70
2023/08/07 03:56:58;;;;;;;2.63;0.80;;;15.10;92.00;;;;;;5136923;27;20110;-70
2023/08/07 03:59:23;;;;;;;2.15;0.93;;;15.10;92.20;;;;;;5137846;27;20052;-70
2023/08/07 04:01:49;;;;;;;1.77;0.70;;;15.10;92.20;;;;;;5137246;27;20441;-70
2023/08/07 04:04:14;;;;;;;1.25;0.75;;;15.10;92.40;;;;;;5137469;27;20027;-70
2023/08/07 04:06:40;;;;;;;0.98;0.70;;;15.10;92.30;;;;;;5137334;27;20027;-71
2023/08/07 04:09:06;;;;;;;1.48;0.45;;;15.10;92.30;;;;;;5137435;27;20030;-70
2023/08/07 04:11:33;;;;;;;1.60;0.77;;;15.10;92.20;;;;;;5137290;27;20401;-70
2023/08/07 04:13:59;;;;;;;0.63;0.60;;;15.10;92.30;;;;;;5136718;27;20118;-70
2023/08/07 04:16:24;;;;;;;3.47;1.00;;;15.10;92.30;;;;;;5136825;27;20095;-70
2023/08/07 04:18:51;;;;;;;2.38;0.80;;;15.00;92.40;;;;;;5136665;27;20026;-70
2023/08/07 04:21:17;;;;;;;2.22;0.70;;;15.00;92.50;;;;;;5136834;27;20094;-70
2023/08/07 04:23:42;;;;;;;1.15;0.55;;;15.00;92.50;;;;;;5136682;27;20069;-71
2023/08/07 04:26:08;;;;;;;1.48;0.65;;;15.00;92.60;;;;;;5119366;27;20055;-70
2023/08/07 04:28:33;;;;;;;4.88;0.80;;;15.00;92.70;;;;;;5138077;27;20024;-70
2023/08/07 04:30:59;;;;;;;3.65;0.65;;;15.00;92.60;;;;;;5137467;27;20023;-70
2023/08/07 04:33:24;;;;;;;1.85;0.77;;;15.10;92.50;;;;;;5134704;27;20084;-70
2023/08/07 04:35:50;;;;;;;0.93;0.65;;;15.00;92.60;;;;;;5098233;28;20027;-70
2023/08/07 04:38:16;;;;;;;2.05;0.63;;;15.00;92.60;;;;;;5116053;28;20027;-70
2023/08/07 04:40:49;;;;;;;0.50;0.50;;;15.00;92.60;;;;;;5115705;28;20024;-74
2023/08/07 04:43:16;;;;;;;1.02;0.60;;;15.00;92.70;;;;;;5115930;28;20081;-70
2023/08/07 04:45:44;;;;;;;0.75;0.50;;;15.00;92.70;;;;;;5116109;28;20028;-70
2023/08/07 04:48:11;;;;;;;1.92;0.50;;;15.00;92.90;;;;;;5115965;28;20035;-70
2023/08/07 04:50:37;;;;;;;1.40;0.70;;;15.00;93.00;;;;;;5116052;28;20369;-70
2023/08/07 04:53:04;;;;;;;0.82;0.60;;;14.90;93.20;;;;;;5115224;28;20704;-70
2023/08/07 04:55:30;;;;;;;2.28;0.77;;;14.90;93.10;;;;;;5135992;27;20041;-70
2023/08/07 04:57:56;;;;;;;0.70;0.50;;;14.90;93.50;;;;;;5135767;27;20421;-70
2023/08/07 05:00:22;;;;;;;1.08;0.60;;;14.90;93.40;;;;;;5117994;27;20075;-70
2023/08/07 05:02:48;;;;;;;2.97;0.60;;;14.90;93.60;;;;;;5136280;27;20095;-70
2023/08/07 05:05:14;;;;;;;1.33;0.40;;;14.90;93.10;;;;;;5136225;27;20106;-70
2023/08/07 05:07:40;;;;;;;1.05;0.40;;;14.90;92.90;;;;;;5136307;27;20027;-70
2023/08/07 05:10:07;;;;;;;1.95;0.50;;;14.90;93.00;;;;;;5135577;27;20023;-70
2023/08/07 05:12:33;;;;;;;0.30;0.30;;;15.00;92.80;;;;;;5136257;27;20038;-71
2023/08/07 05:14:58;;;;;;;0.95;0.40;;;14.90;92.60;;;;;;5117365;27;20031;-70
2023/08/07 05:17:24;;;;;;;0.47;0.30;;;15.00;92.10;;;;;;5117849;27;20048;-70
2023/08/07 05:19:50;;;;;;;0.40;0.40;;;15.00;91.70;;;;;;5135660;27;20023;-69
2023/08/07 05:22:15;;;;;;;2.30;0.43;;;15.10;91.50;;;;;;5136116;27;20451;-69
2023/08/07 05:24:41;;;;;;;2.25;0.32;;;15.30;90.80;;;;;;5135916;27;20474;-69
2023/08/07 05:27:10;;;;;;;0.70;0.40;;;15.40;90.50;;;;;;5135331;27;20059;-70
2023/08/07 05:29:45;;;;;;;0.30;0.30;;;15.40;90.30;;;;;;5135801;27;20046;-70
2023/08/07 05:32:12;;;;;;;1.02;0.43;;;15.50;89.30;;;;;;5135459;27;20425;-70
2023/08/07 05:34:38;;;;;;;5.25;1.17;;;15.50;88.70;;;;;;5135651;27;20032;-70
2023/08/07 05:37:04;;;;;;;9.82;0.55;;;15.50;88.50;;;;;;5134949;27;20028;-70
2023/08/07 05:39:30;;;;;;;0.45;0.40;;;15.40;88.60;;;;;;5135631;27;20038;-69
2023/08/07 05:41:57;;;;;;;1.25;0.50;;;15.30;89.30;;;;;;5135350;27;20467;-70
2023/08/07 05:44:23;;;;;;;1.85;0.30;;;15.30;89.30;;;;;;5135417;27;20164;-69
2023/08/07 05:46:49;;;;;;;1.17;0.43;;;15.30;89.60;;;;;;5134947;27;20028;-69
2023/08/07 05:49:15;;;;;;;3.25;0.60;;;15.20;88.80;;;;;;5135259;27;20047;-69
2023/08/07 05:51:41;;;;;;;3.33;0.55;;;15.20;88.80;;;;;;5135046;27;20098;-69
2023/08/07 05:54:07;;;;;;;0.77;0.40;;;15.10;89.30;;;;;;5134373;27;20549;-70
2023/08/07 05:56:32;;;;;;;0.40;0.40;;;15.10;89.10;;;;;;5135051;27;20349;-69
2023/08/07 05:58:58;;;;;;;0.57;0.40;;;15.10;89.00;;;;;;5135033;27;20027;-69
2023/08/07 06:01:29;;;;;;;3.53;0.32;;;15.10;88.80;;;;;;5135217;27;20026;-70
2023/08/07 06:03:55;;;;;;;0.55;0.40;;;15.00;89.50;;;;;;5134812;27;20030;-70
2023/08/07 06:06:20;;;;;;;0.20;0.20;;;15.00;90.00;;;;;;5134989;27;20094;-70
2023/08/07 06:08:46;;;;;;;2.05;0.50;;;15.00;90.30;;;;;;5134910;27;20023;-70
2023/08/07 06:11:12;;;;;;;0.32;0.30;;;14.90;90.40;;;;;;5134565;27;20023;-70
2023/08/07 06:13:37;;;;;;;3.28;0.40;;;14.90;90.70;;;;;;5134735;27;20225;-70
2023/08/07 06:16:03;;;;;;;1.65;0.40;;;14.80;90.90;;;;;;5133743;27;20538;-70
2023/08/07 06:18:30;;;;;;;0.20;0.20;;;14.80;90.80;;;;;;5134841;27;20069;-69
2023/08/07 06:20:56;;;;;;;0.55;0.40;;;14.80;90.80;;;;;;5133901;27;20390;-69
2023/08/07 06:23:21;;;;;;;0.60;0.30;;;14.70;90.90;;;;;;5134637;27;20035;-70
2023/08/07 06:25:47;;;;;;;0.88;0.40;;;14.70;90.60;;;;;;5134365;27;20023;-70
2023/08/07 06:28:12;;;;;;;0.28;0.20;;;14.70;90.80;;;;;;5134136;27;20030;-70
2023/08/07 06:30:38;;;;;;;2.20;0.35;;;14.60;91.00;;;;;;5135240;27;20035;-70
2023/08/07 06:33:04;;;;;;;2.15;0.30;;;14.70;90.60;;;;;;5130612;27;20019;-70
2023/08/07 06:35:29;;;;;;;1.38;0.38;;;14.70;90.60;;;;;;5134383;27;20064;-70
2023/08/07 06:37:55;;;;;;;0.75;0.40;;;14.80;90.40;;;;;;5133889;27;20023;-70
2023/08/07 06:40:21;;;;;;;3.22;0.60;;;14.80;90.40;;;;;;5116032;27;20035;-70
2023/08/07 06:42:46;;;;;;;1.95;0.30;;;14.80;90.10;;;;;;5134209;27;20560;-70
2023/08/07 06:45:12;;;;;;;0.80;0.60;;;14.90;89.90;;;;;;5133792;27;20469;-70
2023/08/07 06:47:38;;;;;;;0.82;0.40;;;15.00;89.80;;;;;;5134074;27;20023;-70
2023/08/07 06:50:04;;;;;;;0.40;0.40;;;15.10;88.60;;;;;;5133922;27;20055;-70
2023/08/07 06:52:29;;;;;;;7.28;1.48;;;15.10;87.90;;;;;;5134096;27;20031;-70
2023/08/07 06:54:55;;;;;;;0.73;0.28;;;15.30;87.40;;;;;;5133422;27;20098;-70
2023/08/07 06:57:21;;;;;;;2.00;0.40;;;15.40;85.50;;;;;;5133708;27;20027;-70
2023/08/07 06:59:46;;;;;;;0.85;0.40;;;15.80;84.40;;;;;;5133760;27;20098;-68
2023/08/07 07:02:13;;;;;;;1.23;0.75;;;15.80;83.70;;;;;;5133878;27;20042;-69
2023/08/07 07:04:38;;;;;;;0.70;0.40;;;15.80;82.70;;;;;;5133914;27;20071;-69
2023/08/07 07:07:04;;;;;;;0.52;0.50;;;15.80;82.70;;;;;;5132609;27;20047;-69
2023/08/07 07:09:30;;;;;;;0.88;0.40;;;15.70;83.80;;;;;;5134022;27;20023;-69
2023/08/07 07:11:56;;;;;;;0.75;0.30;;;15.60;83.20;;;;;;5133351;27;20023;-71
2023/08/07 07:14:22;;;;;;;0.75;0.43;;;15.60;83.40;;;;;;5133574;27;20079;-69
2023/08/07 07:16:48;;;;;;;1.95;0.50;;;15.60;83.80;;;;;;5133889;27;20027;-69
2023/08/07 07:19:13;;;;;;;2.95;0.50;;;15.40;84.80;;;;;;5133509;27;20050;-70
2023/08/07 07:21:39;;;;;;;2.38;0.40;;;15.30;85.20;;;;;;5133525;27;20080;-70
2023/08/07 07:24:06;;;;;;;2.53;0.50;;;15.30;85.70;;;;;;5133386;27;20023;-70
2023/08/07 07:26:31;;;;;;;0.38;0.38;;;15.20;86.20;;;;;;5133790;27;20030;-70
2023/08/07 07:28:57;;;;;;;1.80;1.05;;;15.10;86.70;;;;;;5133111;28;20425;-70
2023/08/07 07:31:23;;;;;;;0.75;0.50;;;15.00;87.30;;;;;;5133743;28;20031;-70
2023/08/07 07:33:48;;;;;;;3.47;0.70;;;15.00;87.70;;;;;;5133665;28;20031;-70
2023/08/07 07:36:19;;;;;;;1.10;0.40;;;14.90;88.50;;;;;;5133256;28;20432;-70
2023/08/07 07:38:48;;;;;;;0.63;0.40;;;14.90;88.40;;;;;;5133664;28;20471;-70
2023/08/07 07:41:17;;;;;;;1.83;0.52;;;14.90;89.00;;;;;;5133110;28;20023;-70
2023/08/07 07:43:43;;;;;;;5.22;0.60;;;14.80;88.90;;;;;;5133442;28;20031;-70
2023/08/07 07:46:08;;;;;;;3.70;1.50;;;14.80;89.40;;;;;;5133421;28;20023;-70
2023/08/07 07:48:34;;;;;;;1.13;0.60;;;14.80;89.40;;;;;;5133359;28;20043;-70
2023/08/07 07:51:02;;;;;;;0.60;0.60;;;14.80;89.70;;;;;;5132877;28;20050;-71
2023/08/07 07:53:29;;;;;;;0.73;0.50;;;14.80;90.10;;;;;;5133399;28;20027;-70
2023/08/07 07:55:55;;;;;;;0.60;0.50;;;14.80;90.00;;;;;;5133736;28;20034;-70
2023/08/07 07:58:21;;;;;;;1.27;0.57;;;14.80;90.40;;;;;;5132763;28;20027;-70
2023/08/07 08:00:47;;;;;;;2.95;0.45;;;14.80;89.80;;;;;;5133517;28;20444;-70
2023/08/07 08:03:13;;;;;;;1.23;0.60;;;14.90;89.60;;;;;;5133088;28;20055;-70
2023/08/07 08:05:39;;;;;;;1.02;0.57;;;15.00;89.20;;;;;;5133126;28;20483;-70
2023/08/07 08:08:09;;;;;;;0.75;0.52;;;15.00;88.70;;;;;;5132896;28;20371;-71
2023/08/07 08:10:35;;;;;;;3.80;0.80;;;15.10;89.10;;;;;;5133323;28;20384;-70
2023/08/07 08:13:03;;;;;;;2.70;0.60;;;15.10;89.00;;;;;;5114037;28;20023;-71
2023/08/07 08:15:29;;;;;;;2.20;0.50;;;15.20;89.00;;;;;;5133284;28;20385;-70
2023/08/07 08:17:55;;;;;;;0.50;0.50;;;15.10;89.50;;;;;;5135045;27;20019;-70
2023/08/07 08:20:21;;;;;;;1.55;0.57;;;15.20;90.00;;;;;;5136698;27;20030;-70
2023/08/07 08:22:47;;;;;;;0.80;0.70;;;15.40;90.00;;;;;;5137186;27;20075;-70
2023/08/07 08:25:13;;;;;;;2.33;0.40;;;15.50;89.60;;;;;;5136542;27;20102;-70
2023/08/07 08:27:39;;;;;;;3.00;0.70;;;15.60;89.40;;;;;;5131717;27;20119;-70
2023/08/07 08:30:05;;;;;;;0.68;0.40;;;15.70;88.60;;;;;;5097469;28;20024;-68
2023/08/07 08:32:31;;;;;;;1.27;0.50;;;15.70;88.00;;;;;;5116287;28;20031;-70
2023/08/07 08:34:57;;;;;;;0.70;0.60;;;15.70;88.60;;;;;;5116296;28;20160;-69
2023/08/07 08:37:22;;;;;;;2.00;0.60;;;15.60;88.80;;;;;;5115817;28;20107;-69
2023/08/07 08:39:48;;;;;;;0.68;0.60;;;15.50;89.30;;;;;;5116051;28;20028;-69
2023/08/07 08:42:15;;;;;;;0.60;0.52;;;15.40;89.40;;;;;;5115391;28;20055;-69
2023/08/07 08:44:51;;;;;;;2.13;0.80;;;15.30;90.20;;;;;;5116051;28;20020;-68
2023/08/07 08:47:17;;;;;;;2.33;0.88;;;15.40;90.60;;;;;;5115522;28;20030;-68
2023/08/07 08:50:11;;;;;;;1.98;0.70;;;15.30;90.90;;;;;;5115495;28;20040;-68
2023/08/07 08:52:38;;;;;;;2.03;0.80;;;15.40;90.40;;;;;;5098674;28;20093;-68
2023/08/07 08:55:04;;;;;;;3.45;0.80;;;15.40;90.50;;;;;;5115416;28;20055;-69
2023/08/07 08:57:30;;;;;;;6.15;0.90;;;15.40;90.10;;;;;;5115918;28;20030;-70
2023/08/07 09:00:02;;;;;;;1.63;0.90;;;15.40;90.00;;;;;;5115742;28;20023;-70
2023/08/07 09:02:27;;;;;;;2.50;0.77;;;15.40;90.00;;;;;;5134254;27;20095;-70
2023/08/07 09:04:53;;;;;;;2.85;0.55;;;15.30;90.00;;;;;;5136082;27;20409;-70
2023/08/07 09:07:20;;;;;;;1.08;0.70;;;15.30;90.00;;;;;;5135762;27;20023;-70
2023/08/07 09:09:47;;;;;;;1.55;0.60;;;15.30;90.10;;;;;;5136164;27;20072;-70
2023/08/07 09:12:29;;;;;;;0.82;0.63;;;15.10;90.50;;;;;;5135527;27;20031;-70
2023/08/07 09:14:56;;;;;;;0.80;0.65;;;15.00;90.70;;;;;;5135908;27;20035;-70
2023/08/07 09:17:26;;;;;;;1.58;0.80;;;15.00;91.00;;;;;;5135865;27;20523;-70
2023/08/07 09:19:52;;;;;;;2.88;0.70;;;14.90;91.40;;;;;;5135902;27;20459;-70
2023/08/07 09:22:19;;;;;;;1.20;0.82;;;14.90;91.80;;;;;;5135300;27;20035;-70
2023/08/07 09:24:45;;;;;;;2.00;0.77;;;14.80;91.90;;;;;;5135714;27;20023;-70
2023/08/07 09:27:11;;;;;;;1.63;0.63;;;14.80;92.40;;;;;;5116927;27;20041;-70
2023/08/07 09:29:39;;;;;;;1.73;0.95;;;14.70;92.60;;;;;;5135122;27;20027;-70
2023/08/07 09:32:08;;;;;;;0.85;0.63;;;14.70;93.00;;;;;;5135034;27;20030;-70
2023/08/07 09:34:34;;;;;;;1.15;0.70;;;14.70;93.40;;;;;;5135353;27;20027;-70
2023/08/07 09:37:01;;;;;;;4.68;0.70;;;14.70;93.80;;;;;;5135541;27;20030;-70
2023/08/07 09:39:27;;;;;;;1.67;0.70;;;14.70;94.20;;;;;;5134840;27;20406;-70
2023/08/07 09:41:53;;;;;;;0.98;0.73;;;14.70;94.60;;;;;;5135504;27;20023;-69
2023/08/07 09:44:18;;;;;;;2.25;1.15;;;14.70;95.00;;;;;;5116664;27;20023;-70
2023/08/07 09:46:44;;;;;;;0.80;0.73;;;14.70;95.40;;;;;;5135262;27;20375;-70
2023/08/07 09:49:10;;;;;;;2.00;0.90;;;14.60;95.10;;;;;;5116254;27;20039;-70
2023/08/07 09:51:47;;;;;;;1.08;0.80;;;14.60;95.20;;;;;;5135679;27;20030;-70
2023/08/07 09:54:12;;;;;;;0.85;0.60;;;14.60;95.50;;;;;;5135005;27;20361;-70
2023/08/07 09:56:40;;;;;;;2.33;0.98;;;14.60;95.70;;;;;;5135260;27;20027;-70
2023/08/07 09:59:06;;;;;;;2.42;0.90;;;14.60;96.30;;;;;;5134471;27;20027;-74
2023/08/07 10:01:33;;;;;;;1.33;0.73;;;14.60;97.00;;;;;;5135034;27;20024;-70
2023/08/07 10:03:59;;;;;;;1.48;1.00;;;14.50;97.50;;;;;;5134781;27;20487;-70
2023/08/07 10:06:25;;;;;;;1.75;0.95;;;14.50;97.60;;;;;;5134766;27;20062;-69
2023/08/07 10:08:51;;;;;;;1.08;0.80;;;14.50;98.40;;;;;;5134654;27;20047;-70
2023/08/07 10:11:17;;;;;;;1.90;0.90;;;14.40;98.70;;;;;;5134760;27;20031;-70
2023/08/07 10:13:44;;;;;;;1.33;0.90;;;14.50;99.30;;;;;;5135026;27;20075;-70
2023/08/07 10:16:11;;;;;;;1.92;1.48;;;14.50;99.90;;;;;;5134453;27;20416;-70
2023/08/07 10:18:37;;;;;;;2.50;1.00;;;14.50;99.90;;;;;;5134882;27;20027;-70
2023/08/07 10:21:06;;;;;;;2.58;1.20;;;14.50;99.90;;;;;;5135160;27;20034;-70
2023/08/07 10:23:37;;;;;;;1.17;0.80;;;14.50;99.90;;;;;;5134664;27;20331;-69
2023/08/07 10:26:05;;;;;;;2.70;1.07;;;14.40;99.90;;;;;;5134691;27;20027;-69
2023/08/07 10:28:34;;;;;;;2.88;0.95;;;14.40;99.90;;;;;;5134123;27;20039;-69
2023/08/07 10:31:00;;;;;;;1.98;1.02;;;14.40;99.90;;;;;;5134441;27;20030;-70
2023/08/07 10:33:27;;;;;;;2.55;0.82;;;14.40;99.90;;;;;;5130493;27;20042;-70
2023/08/07 10:35:52;;;;;;;1.58;1.00;;;14.50;99.90;;;;;;5116100;27;20467;-70
2023/08/07 10:38:22;;;;;;;2.38;0.88;;;14.50;99.90;;;;;;5115585;27;20027;-69
2023/08/07 10:41:23;;;;;;;1.38;0.80;;;14.40;99.90;;;;;;5134573;27;20029;-69
2023/08/07 10:43:48;;;;;;;2.85;0.90;;;14.30;99.90;;;;;;5050764;28;20140;-70
2023/08/07 10:46:21;;;;;;;0.73;0.70;;;14.30;99.90;;;;;;5116188;27;20031;-69
2023/08/07 10:48:53;;;;;;;1.25;1.00;;;14.20;99.90;;;;;;5134183;27;20108;-69
2023/08/07 10:51:19;;;;;;;1.13;1.00;;;14.20;99.90;;;;;;5133853;27;20076;-70
2023/08/07 10:53:50;;;;;;;2.17;0.90;;;14.10;99.90;;;;;;5133750;27;20027;-69
2023/08/07 10:56:17;;;;;;;;;;;14.10;99.90;;;;;;5134025;27;20023;-69
2023/08/07 10:58:49;;;;;;;1.33;0.88;;;14.00;99.90;;;;;;5134328;27;19926;-69
2023/08/07 11:01:35;;;;;;;1.65;0.90;;;14.00;99.90;;;;;;5133510;27;20060;-70
2023/08/07 11:04:06;;;;;;;3.10;0.93;;;14.00;99.90;;;;;;5113562;28;20023;-69
2023/08/07 11:06:34;;;;;;;1.48;0.85;;;13.90;99.90;;;;;;5112674;28;20375;-69
2023/08/07 11:09:03;;;;;;;3.22;1.20;;;13.90;99.90;;;;;;5113296;28;20076;-69
2023/08/07 11:11:41;;;;;;;2.75;0.98;;;13.90;99.90;;;;;;5112803;28;20487;-69
2023/08/07 11:14:08;;;;;;;2.47;1.25;;;13.80;99.90;;;;;;5113353;28;20032;-70
2023/08/07 11:16:34;;;;;;;1.67;1.30;;;13.90;99.90;;;;;;5112880;28;20034;-69
2023/08/07 11:19:00;;;;;;;2.47;1.10;;;13.90;99.90;;;;;;5112904;28;20609;-69
2023/08/07 11:21:26;;;;;;;2.78;1.02;;;13.90;99.90;;;;;;5113370;28;20103;-69
2023/08/07 11:23:52;;;;;;;1.70;1.10;;;13.90;99.90;;;;;;5113158;28;20032;-69
2023/08/07 11:26:21;;;;;;;2.35;1.00;;;13.80;99.90;;;;;;5094800;28;20118;-72
2023/08/07 11:28:47;;;;;;;1.50;1.20;;;13.90;99.90;;;;;;5113016;28;20028;-70
2023/08/07 11:31:13;;;;;;;1.73;0.82;;;13.90;99.90;;;;;;5112859;28;20024;-69
2023/08/07 11:33:40;;;;;;;1.67;0.80;;;13.90;99.90;;;;;;5113154;28;20461;-69
2023/08/07 11:36:13;;;;;;;3.17;1.33;;;13.90;99.90;;;;;;5112988;28;20035;-69
2023/08/07 11:38:42;;;;;;;1.60;1.23;;;13.90;99.90;;;;;;5113099;28;20035;-69
2023/08/07 11:41:10;;;;;;;2.13;1.20;;;13.90;99.90;;;;;;5113039;28;20031;-69
2023/08/07 11:43:36;;;;;;;2.40;1.30;;;13.90;99.90;;;;;;5112510;28;20028;-69
2023/08/07 11:46:04;;;;;;;2.55;1.23;;;13.90;99.90;;;;;;5113054;28;20051;-69
2023/08/07 11:48:31;;;;;;;1.90;1.20;;;13.90;99.90;;;;;;5112530;28;20114;-70
2023/08/07 11:50:58;;;;;;;1.67;1.20;;;13.90;99.90;;;;;;5113000;28;20027;-70
2023/08/07 11:53:26;;;;;;;1.23;0.90;;;13.90;99.90;;;;;;5114764;28;20034;-70
2023/08/07 11:55:57;;;;;;;1.63;1.23;;;13.90;99.90;;;;;;5116938;28;20100;-69
2023/08/07 11:58:24;;;;;;;1.55;1.08;;;13.90;99.90;;;;;;5116693;28;20023;-68
2023/08/07 12:00:50;;;;;;;1.10;1.00;;;13.90;99.90;;;;;;5116872;28;20039;-70
2023/08/07 12:03:38;;;;;;;2.85;1.20;;;13.90;99.90;;;;;;5116285;28;20036;-70
2023/08/07 12:06:06;;;;;;;1.65;1.10;;;13.90;99.90;;;;;;5116762;28;20027;-70
2023/08/07 12:08:42;;;;;;;1.67;1.10;;;14.00;99.90;;;;;;5116165;28;20028;-70
2023/08/07 12:11:10;;;;;;;1.73;1.10;;;14.00;99.90;;;;;;5116369;28;20081;-70
2023/08/07 12:13:41;;;;;;;1.70;1.10;;;14.00;99.90;;;;;;5123990;27;20107;-70
2023/08/07 12:16:08;;;;;;;2.85;1.10;;;14.00;99.90;;;;;;5136997;27;20089;-70
2023/08/07 12:18:35;;;;;;;1.92;1.02;;;14.00;99.90;;;;;;5136665;27;20118;-70
2023/08/07 12:21:04;;;;;;;2.28;1.08;;;14.10;99.90;;;;;;5137135;27;20023;-70
2023/08/07 12:23:33;;;;;;;1.45;0.90;;;14.10;99.90;;;;;;5136780;27;20370;-70
2023/08/07 12:25:59;;;;;;;1.55;0.88;;;14.10;99.90;;;;;;5136757;27;20023;-70
2023/08/07 12:28:25;;;;;;;4.80;1.23;;;14.10;99.90;;;;;;5136498;27;20438;-70
2023/08/07 12:30:51;;;;;;;8.27;1.27;;;14.10;99.90;;;;;;5137115;27;20031;-69
2023/08/07 12:33:17;;;;;;;1.23;1.00;;;14.10;99.90;;;;;;5132903;27;20103;-70
2023/08/07 12:35:43;;;;;;;1.77;1.23;;;14.10;99.90;;;;;;5136632;27;20084;-69
2023/08/07 12:38:09;;;;;;;1.45;1.23;;;14.20;99.90;;;;;;5136448;27;20031;-70
2023/08/07 12:40:36;;;;;;;2.08;1.30;;;14.20;99.90;;;;;;5136379;27;20029;-70
2023/08/07 12:43:03;;;;;;;2.97;1.50;;;14.20;99.90;;;;;;5136634;27;20045;-70
2023/08/07 12:45:28;;;;;;;1.88;1.00;;;14.30;99.90;;;;;;5136206;27;20031;-70
2023/08/07 12:47:54;;;;;;;1.77;1.20;;;14.30;99.90;;;;;;5118167;27;20373;-68